ハンブルク の空港の天気 - METARとTAF

ハンブルク国際空港 ( EDDH / HAM ) - ドイツ ハンブルク
飛行場実況気象(Metar)
観測時間07/18 14:20 CEST (07/18 12:20 UTC)
風向・風速南 3m/s
視程10km以上
天気現象
なし
気温24℃
湿度50%
気圧1011hPa
METAREDDH 181220Z 18006KT 140V250 CAVOK 24/13 Q1011 NOSIG
過去の天気等 Google飛行場航空写真 Wunderground天気予報

過去48時間のMETAR

飛行場予報(TAF)
発表時間: 7/18 13:00 CEST (7/18 11:00 UTC)
予報対象時間: 18日14時 CEST ~ 19日20時 CEST
風向・風速南 3m/s
視程10km以上
少しの雲 雲底高度 1220m
18日20時 CEST ~ 18日22時 CEST に徐々に
風向・風速不定 1m/s
18日21時 CEST ~ 18日24時 CEST に 確率 30% で一時的に
天気現象しゅう雨
全天の8割程度の積乱雲 雲底高度 1220m
19日7時 CEST ~ 19日9時 CEST に徐々に
全天の8割程度の雲 雲底高度 240m
19日7時 CEST ~ 19日12時 CEST に 確率 30% で一時的に
視程3500m
天気現象弱い霧雨雨
19日11時 CEST ~ 19日13時 CEST に徐々に
風向・風速西 4m/s
TAF EDDH 181100Z 1812/1918 18006KT 9999 FEW040
BECMG 1818/1820 VRB02KT
PROB30 TEMPO 1819/1822 SHRA BKN040CB
BECMG 1905/1907 BKN008
PROB30 TEMPO 1905/1910 3500 -DZRA
BECMG 1909/1911 26007KT